Time;durP1;ratioP1;P1;durP2;ratioP2;P2;SDS_P1;SDS_P2;PMS_P1;PMS_P2;Temp;Humidity;BMP_temperature;BMP_pressure;BME280_temperature;BME280_humidity;BME280_pressure;Samples;Min_cycle;Max_cycle;Signal;HPM_P1;HPM_P2
2022/07/31 00:00:40;;;;;;;15.45;9.55;;;;;;;;;;5055328;28;20031;-85
2022/07/31 00:03:07;;;;;;;11.63;9.00;;;;;;;;;;5044931;28;20034;-85
2022/07/31 00:05:33;;;;;;;12.15;10.18;;;;;;;;;;5037314;28;20021;-84
2022/07/31 00:08:00;;;;;;;13.05;9.77;;;;;;;;;;5043860;28;20357;-84
2022/07/31 00:10:25;;;;;;;13.15;9.60;;;;;;;;;;5030363;28;20102;-84
2022/07/31 00:12:51;;;;;;;12.63;9.98;;;;;;;;;;5054920;28;20158;-84
2022/07/31 00:15:16;;;;;;;14.43;10.75;;;;;;;;;;5052717;28;20032;-84
2022/07/31 00:17:43;;;;;;;13.88;10.52;;;;;;;;;;5050588;28;20049;-84
2022/07/31 00:20:12;;;;;;;14.10;10.52;;;;;;;;;;5067539;28;20041;-84
2022/07/31 00:22:47;;;;;;;11.18;9.32;;;;;;;;;;5053402;28;20061;-84
2022/07/31 00:25:14;;;;;;;12.90;11.10;;;;;;;;;;5083554;28;20030;-84
2022/07/31 00:27:40;;;;;;;17.35;11.68;;;;;;;;;;5038784;28;20061;-84
2022/07/31 00:30:07;;;;;;;13.50;11.02;;;;;;;;;;5054754;28;20136;-84
2022/07/31 00:32:33;;;;;;;17.08;11.80;;;;;;;;;;5033224;28;20041;-84
2022/07/31 00:34:58;;;;;;;11.85;10.25;;;;;;;;;;5071097;28;20020;-84
2022/07/31 00:37:24;;;;;;;12.63;9.88;;;;;;;;;;5072154;28;20067;-84
2022/07/31 00:39:49;;;;;;;12.63;8.93;;;;;;;;;;5073989;28;20031;-84
2022/07/31 00:42:19;;;;;;;14.65;9.38;;;;;;;;;;5057878;28;20032;-84
2022/07/31 00:44:45;;;;;;;;;;;;;;;;;;5057588;28;20030;-84
2022/07/31 00:47:10;;;;;;;12.60;8.20;;;;;;;;;;5063895;28;19961;-84
2022/07/31 00:49:35;;;;;;;11.10;8.85;;;;;;;;;;5045960;28;20061;-84
2022/07/31 00:52:01;;;;;;;11.55;8.68;;;;;;;;;;5078564;28;20056;-84
2022/07/31 00:54:26;;;;;;;12.20;8.75;;;;;;;;;;5081850;28;20463;-84
2022/07/31 00:56:52;;;;;;;14.73;9.70;;;;;;;;;;5051112;28;20548;-85
2022/07/31 00:59:17;;;;;;;11.70;7.93;;;;;;;;;;5069988;28;20028;-84
2022/07/31 01:01:42;;;;;;;9.82;7.85;;;;;;;;;;5045209;28;20029;-83
2022/07/31 01:04:08;;;;;;;11.45;8.60;;;;;;;;;;5089490;28;20027;-83
2022/07/31 01:06:33;;;;;;;15.05;8.07;;;;;;;;;;5032490;28;20457;-82
2022/07/31 01:08:59;;;;;;;10.57;7.43;;;;;;;;;;5052548;28;20020;-83
2022/07/31 01:11:46;;;;;;;9.57;7.05;;;;;;;;;;5078794;28;20109;-83
2022/07/31 01:14:12;;;;;;;10.48;8.02;;;;;;;;;;5077749;28;20481;-84
2022/07/31 01:16:45;;;;;;;10.68;8.50;;;;;;;;;;5099553;28;20186;-83
2022/07/31 01:19:20;;;;;;;11.65;7.80;;;;;;;;;;5076187;28;20486;-83
2022/07/31 01:22:13;;;;;;;9.95;6.93;;;;;;;;;;5025651;28;20104;-83
2022/07/31 01:25:06;;;;;;;9.85;6.57;;;;;;;;;;5082925;28;20043;-83
2022/07/31 01:28:15;;;;;;;8.90;6.50;;;;;;;;;;5051168;28;20031;-82
2022/07/31 01:31:24;;;;;;;10.27;6.60;;;;;;;;;;5073727;28;20060;-82
2022/07/31 01:34:02;;;;;;;7.50;6.10;;;;;;;;;;5014957;28;20035;-83
2022/07/31 01:36:33;;;;;;;11.93;7.47;;;;;;;;;;5044756;28;20033;-83
2022/07/31 01:38:59;;;;;;;11.85;7.45;;;;;;;;;;5034438;28;20070;-83
2022/07/31 01:41:31;;;;;;;13.32;8.35;;;;;;;;;;5031540;28;20026;-83
2022/07/31 01:43:57;;;;;;;9.75;7.53;;;;;;;;;;5090231;28;20031;-82
2022/07/31 01:46:25;;;;;;;9.35;7.57;;;;;;;;;;5018479;28;20025;-82
2022/07/31 01:48:53;;;;;;;8.93;7.30;;;;;;;;;;5060875;28;20495;-82
2022/07/31 01:51:22;;;;;;;9.10;6.75;;;;;;;;;;5057537;28;20022;-82
2022/07/31 01:53:49;;;;;;;10.95;6.30;;;;;;;;;;5078876;28;20028;-83
2022/07/31 01:56:18;;;;;;;10.40;6.78;;;;;;;;;;5050511;28;20384;-84
2022/07/31 01:58:45;;;;;;;8.68;7.32;;;;;;;;;;5067633;28;20034;-83
2022/07/31 02:01:12;;;;;;;8.88;7.43;;;;;;;;;;5063024;28;20076;-83
2022/07/31 02:03:40;;;;;;;14.95;7.88;;;;;;;;;;5056578;28;20038;-83
2022/07/31 02:06:05;;;;;;;13.35;8.57;;;;;;;;;;5050551;28;20031;-83
2022/07/31 02:08:32;;;;;;;10.82;8.05;;;;;;;;;;5057107;28;20033;-82
2022/07/31 02:11:00;;;;;;;12.70;8.30;;;;;;;;;;5048966;28;20026;-83
2022/07/31 02:13:29;;;;;;;12.45;8.40;;;;;;;;;;5042421;28;20027;-83
2022/07/31 02:15:56;;;;;;;12.30;8.82;;;;;;;;;;5027854;28;20051;-83
2022/07/31 02:18:23;;;;;;;11.30;8.20;;;;;;;;;;5044634;28;20030;-83
2022/07/31 02:20:49;;;;;;;20.67;10.10;;;;;;;;;;5033198;28;20041;-84
2022/07/31 02:23:15;;;;;;;11.02;8.13;;;;;;;;;;5041987;28;20373;-83
2022/07/31 02:25:42;;;;;;;14.10;8.30;;;;;;;;;;5038300;28;20026;-82
2022/07/31 02:28:11;;;;;;;11.90;8.77;;;;;;;;;;5075152;28;20034;-83
2022/07/31 02:30:39;;;;;;;13.45;9.35;;;;;;;;;;5050691;28;20082;-83
2022/07/31 02:33:09;;;;;;;12.63;9.38;;;;;;;;;;5050469;28;20041;-83
2022/07/31 02:35:34;;;;;;;13.48;8.02;;;;;;;;;;5074838;28;20046;-82
2022/07/31 02:38:01;;;;;;;11.38;7.35;;;;;;;;;;5054054;28;20469;-82
2022/07/31 02:40:27;;;;;;;11.02;7.72;;;;;;;;;;5056435;28;20037;-82
2022/07/31 02:42:53;;;;;;;10.02;7.80;;;;;;;;;;5090403;28;20029;-83
2022/07/31 02:45:19;;;;;;;9.68;8.05;;;;;;;;;;5059227;28;20011;-82
2022/07/31 02:47:45;;;;;;;9.57;7.60;;;;;;;;;;5055011;27;20109;-82
2022/07/31 02:50:11;;;;;;;8.77;7.38;;;;;;;;;;5077261;28;20053;-82
2022/07/31 02:52:37;;;;;;;9.65;7.10;;;;;;;;;;5038666;28;20427;-82
2022/07/31 02:55:04;;;;;;;12.60;8.35;;;;;;;;;;5031263;28;20112;-82
2022/07/31 02:57:29;;;;;;;10.93;8.60;;;;;;;;;;5044862;28;20032;-82
2022/07/31 02:59:55;;;;;;;10.38;9.10;;;;;;;;;;5041385;28;20778;-83
2022/07/31 03:02:22;;;;;;;10.18;8.18;;;;;;;;;;5050341;28;20022;-83
2022/07/31 03:04:47;;;;;;;10.48;8.25;;;;;;;;;;5053274;28;20055;-82
2022/07/31 03:07:12;;;;;;;11.88;7.93;;;;;;;;;;5065640;28;20096;-83
2022/07/31 03:09:38;;;;;;;9.05;7.15;;;;;;;;;;5042626;28;20056;-84
2022/07/31 03:12:04;;;;;;;8.98;6.95;;;;;;;;;;5077619;28;20039;-84
2022/07/31 03:14:33;;;;;;;10.25;7.43;;;;;;;;;;5019266;28;20096;-86
2022/07/31 03:16:59;;;;;;;11.23;8.27;;;;;;;;;;5039879;28;20045;-85
2022/07/31 03:19:25;;;;;;;11.45;8.85;;;;;;;;;;5049958;28;20030;-83
2022/07/31 03:21:51;;;;;;;18.83;12.45;;;;;;;;;;5051310;28;20459;-83
2022/07/31 03:24:17;;;;;;;14.80;11.07;;;;;;;;;;5050975;28;20028;-82
2022/07/31 03:26:43;;;;;;;24.02;16.02;;;;;;;;;;5039532;28;20438;-85
2022/07/31 03:29:08;;;;;;;22.15;15.32;;;;;;;;;;5027918;28;20026;-84
2022/07/31 03:31:34;;;;;;;24.90;15.93;;;;;;;;;;5029205;28;20085;-85
2022/07/31 03:34:00;;;;;;;20.17;12.73;;;;;;;;;;5030980;28;20041;-86
2022/07/31 03:36:26;;;;;;;15.23;11.00;;;;;;;;;;5034535;28;20384;-83
2022/07/31 03:38:51;;;;;;;14.60;10.50;;;;;;;;;;5050458;28;20113;-83
2022/07/31 03:41:17;;;;;;;14.93;9.88;;;;;;;;;;5027004;28;20108;-82
2022/07/31 03:43:43;;;;;;;13.27;10.32;;;;;;;;;;5038644;28;20037;-83
2022/07/31 03:46:10;;;;;;;13.40;10.45;;;;;;;;;;5036022;28;20030;-82
2022/07/31 03:48:35;;;;;;;16.80;13.32;;;;;;;;;;5058664;28;20424;-83
2022/07/31 03:51:01;;;;;;;18.02;13.27;;;;;;;;;;5040880;28;20021;-83
2022/07/31 03:53:27;;;;;;;18.30;14.32;;;;;;;;;;5048452;28;20015;-83
2022/07/31 03:55:54;;;;;;;17.15;13.30;;;;;;;;;;5055982;28;20027;-83
2022/07/31 03:58:21;;;;;;;18.90;13.43;;;;;;;;;;5059543;28;20729;-83
2022/07/31 04:00:47;;;;;;;19.60;13.45;;;;;;;;;;5055250;28;20034;-83
2022/07/31 04:03:13;;;;;;;15.40;11.52;;;;;;;;;;5034710;27;20351;-83
2022/07/31 04:05:39;;;;;;;14.88;10.93;;;;;;;;;;5033820;28;20033;-83
2022/07/31 04:08:09;;;;;;;13.18;10.32;;;;;;;;;;5052008;28;20077;-83
2022/07/31 04:10:35;;;;;;;13.90;11.88;;;;;;;;;;5058177;28;20055;-83
2022/07/31 04:13:05;;;;;;;16.98;14.13;;;;;;;;;;5049251;28;20045;-83
2022/07/31 04:15:31;;;;;;;24.08;15.15;;;;;;;;;;5062589;28;20026;-83
2022/07/31 04:17:56;;;;;;;20.05;15.68;;;;;;;;;;5073116;28;20042;-84
2022/07/31 04:20:22;;;;;;;22.73;17.90;;;;;;;;;;5069393;28;20138;-83
2022/07/31 04:22:47;;;;;;;27.67;16.48;;;;;;;;;;5041270;28;20154;-82
2022/07/31 04:25:13;;;;;;;18.80;15.35;;;;;;;;;;5066719;28;20041;-83
2022/07/31 04:27:39;;;;;;;19.60;14.90;;;;;;;;;;5082359;28;20116;-83
2022/07/31 04:30:05;;;;;;;17.67;13.68;;;;;;;;;;5064539;28;20026;-83
2022/07/31 04:32:31;;;;;;;16.42;12.25;;;;;;;;;;5078705;28;20392;-83
2022/07/31 04:34:57;;;;;;;16.65;11.85;;;;;;;;;;5086112;28;20019;-83
2022/07/31 04:37:22;;;;;;;13.45;10.80;;;;;;;;;;5057672;28;20018;-83
2022/07/31 04:39:48;;;;;;;14.38;10.32;;;;;;;;;;5059219;28;20036;-83
2022/07/31 04:42:14;;;;;;;11.10;9.48;;;;;;;;;;5078051;28;20104;-83
2022/07/31 04:44:39;;;;;;;13.52;10.10;;;;;;;;;;5039475;28;20357;-83
2022/07/31 04:47:06;;;;;;;12.10;9.57;;;;;;;;;;5049736;28;20082;-83
2022/07/31 04:49:32;;;;;;;11.45;9.48;;;;;;;;;;5026224;28;20121;-83
2022/07/31 04:51:59;;;;;;;11.20;9.63;;;;;;;;;;5040732;28;20024;-83
2022/07/31 04:54:24;;;;;;;11.85;9.73;;;;;;;;;;5052623;28;20027;-84
2022/07/31 04:56:50;;;;;;;11.10;9.25;;;;;;;;;;5048218;28;20082;-83
2022/07/31 04:59:19;;;;;;;11.38;8.80;;;;;;;;;;5046621;28;20499;-84
2022/07/31 05:01:45;;;;;;;9.05;7.68;;;;;;;;;;5058296;28;20370;-83
2022/07/31 05:04:11;;;;;;;8.02;7.15;;;;;;;;;;5076027;28;20483;-83
2022/07/31 05:06:39;;;;;;;7.68;6.85;;;;;;;;;;5052757;28;20486;-83
2022/07/31 05:09:11;;;;;;;6.75;5.90;;;;;;;;;;5036955;28;20041;-83
2022/07/31 05:11:38;;;;;;;6.05;5.45;;;;;;;;;;5039214;28;20038;-83
2022/07/31 05:14:05;;;;;;;7.63;6.10;;;;;;;;;;5045393;28;20133;-83
2022/07/31 05:16:32;;;;;;;7.03;6.00;;;;;;;;;;5063948;28;20134;-83
2022/07/31 05:18:58;;;;;;;8.52;6.65;;;;;;;;;;5041254;28;20026;-84
2022/07/31 05:21:27;;;;;;;7.15;6.15;;;;;;;;;;5036366;28;20030;-85
2022/07/31 05:23:54;;;;;;;6.40;5.43;;;;;;;;;;5050585;28;20060;-85
2022/07/31 05:26:20;;;;;;;6.93;6.07;;;;;;;;;;5043084;28;20394;-84
2022/07/31 05:28:48;;;;;;;6.30;5.40;;;;;;;;;;5060727;28;20042;-83
2022/07/31 05:31:14;;;;;;;10.85;6.93;;;;;;;;;;5053857;27;20538;-84
2022/07/31 05:33:39;;;;;;;12.73;10.75;;;;;;;;;;5054118;28;20352;-82
2022/07/31 05:36:05;;;;;;;12.18;9.20;;;;;;;;;;5065276;28;20045;-86
2022/07/31 05:38:31;;;;;;;13.90;10.35;;;;;;;;;;5053181;28;20101;-84
2022/07/31 05:40:57;;;;;;;12.85;9.90;;;;;;;;;;5071358;28;20027;-85
2022/07/31 05:43:23;;;;;;;14.82;10.38;;;;;;;;;;5062531;28;20394;-84
2022/07/31 05:45:48;;;;;;;14.30;11.02;;;;;;;;;;5052251;28;20026;-84
2022/07/31 05:48:14;;;;;;;11.65;8.65;;;;;;;;;;5043616;28;20033;-85
2022/07/31 05:50:42;;;;;;;12.20;8.93;;;;;;;;;;5066626;28;20032;-85
2022/07/31 05:53:08;;;;;;;12.75;9.65;;;;;;;;;;5060188;28;20040;-85
2022/07/31 05:55:33;;;;;;;13.77;10.00;;;;;;;;;;5074993;28;20030;-85
2022/07/31 05:57:58;;;;;;;13.30;10.18;;;;;;;;;;5076026;28;20382;-84
2022/07/31 06:00:24;;;;;;;12.95;10.07;;;;;;;;;;5052383;28;20107;-84
2022/07/31 06:02:49;;;;;;;15.23;9.27;;;;;;;;;;5021917;28;20386;-85
2022/07/31 06:05:15;;;;;;;13.00;9.52;;;;;;;;;;5050738;28;20029;-85
2022/07/31 06:07:40;;;;;;;11.48;9.05;;;;;;;;;;5035790;28;20036;-85
2022/07/31 06:10:06;;;;;;;12.48;9.88;;;;;;;;;;5061041;28;20037;-86
2022/07/31 06:12:31;;;;;;;13.30;9.98;;;;;;;;;;5058247;28;20027;-84
2022/07/31 06:14:58;;;;;;;10.95;9.50;;;;;;;;;;5047276;28;20447;-86
2022/07/31 06:17:24;;;;;;;13.18;10.30;;;;;;;;;;5073379;28;20045;-86
2022/07/31 06:19:49;;;;;;;11.70;9.60;;;;;;;;;;5035704;28;20470;-83
2022/07/31 06:22:15;;;;;;;12.43;10.15;;;;;;;;;;5009431;28;20426;-86
2022/07/31 06:24:40;;;;;;;12.65;9.75;;;;;;;;;;5018620;28;20037;-87
2022/07/31 06:27:05;;;;;;;12.00;9.85;;;;;;;;;;5018227;28;20097;-88
2022/07/31 06:29:31;;;;;;;12.15;10.77;;;;;;;;;;5038902;28;20056;-87
2022/07/31 06:31:57;;;;;;;11.52;9.73;;;;;;;;;;5026952;28;20038;-88
2022/07/31 06:34:23;;;;;;;13.85;11.15;;;;;;;;;;5045670;28;20034;-86
2022/07/31 06:36:48;;;;;;;12.38;10.07;;;;;;;;;;5050911;28;20449;-85
2022/07/31 06:39:15;;;;;;;13.52;10.73;;;;;;;;;;5014580;28;20027;-83
2022/07/31 06:41:46;;;;;;;13.63;10.50;;;;;;;;;;5016004;28;20041;-85
2022/07/31 06:44:13;;;;;;;12.77;10.15;;;;;;;;;;5034832;28;20477;-85
2022/07/31 06:46:38;;;;;;;13.38;10.13;;;;;;;;;;5027847;28;20033;-85
2022/07/31 06:49:04;;;;;;;12.43;10.23;;;;;;;;;;5062230;28;20461;-84
2022/07/31 06:51:30;;;;;;;13.88;10.05;;;;;;;;;;5056422;28;20035;-87
2022/07/31 06:53:56;;;;;;;14.02;10.60;;;;;;;;;;5054586;28;20031;-86
2022/07/31 06:56:22;;;;;;;13.98;11.85;;;;;;;;;;5043534;28;20486;-87
2022/07/31 06:58:47;;;;;;;14.15;11.32;;;;;;;;;;5057486;28;20064;-87
2022/07/31 07:01:13;;;;;;;19.25;15.10;;;;;;;;;;5040657;28;20047;-87
2022/07/31 07:03:38;;;;;;;17.67;13.48;;;;;;;;;;5050343;28;20025;-85
2022/07/31 07:06:04;;;;;;;12.93;10.90;;;;;;;;;;5054446;28;20080;-86
2022/07/31 07:08:29;;;;;;;13.45;11.10;;;;;;;;;;5034998;28;20113;-86
2022/07/31 07:10:55;;;;;;;13.57;11.07;;;;;;;;;;5022097;28;20025;-88
2022/07/31 07:13:20;;;;;;;14.10;11.60;;;;;;;;;;5029786;28;20029;-86
2022/07/31 07:15:46;;;;;;;15.38;13.13;;;;;;;;;;5047961;28;20046;-85
2022/07/31 07:18:11;;;;;;;13.25;10.43;;;;;;;;;;5025343;28;20026;-86
2022/07/31 07:20:37;;;;;;;13.57;10.90;;;;;;;;;;5021249;28;20078;-86
2022/07/31 07:23:02;;;;;;;14.32;11.88;;;;;;;;;;5029756;28;20104;-86
2022/07/31 07:25:28;;;;;;;15.52;12.82;;;;;;;;;;5036368;28;20021;-87
2022/07/31 07:27:55;;;;;;;12.68;10.95;;;;;;;;;;5029350;28;20032;-88
2022/07/31 07:30:21;;;;;;;14.52;11.15;;;;;;;;;;5036087;28;20416;-86
2022/07/31 07:32:46;;;;;;;14.68;12.00;;;;;;;;;;5034411;28;20041;-87
2022/07/31 07:35:54;;;;;;;;;;;;;;;;;;;;;
2022/07/31 07:38:45;;;;;;;15.32;12.18;;;;;;;;;;5024580;28;20051;-86
2022/07/31 07:41:27;;;;;;;14.63;11.27;;;;;;;;;;5055171;28;20026;-84
2022/07/31 07:44:24;;;;;;;13.52;11.98;;;;;;;;;;5047944;28;20364;-83
2022/07/31 07:47:16;;;;;;;14.23;12.43;;;;;;;;;;5121818;27;20026;-82
2022/07/31 07:49:42;;;;;;;16.15;11.18;;;;;;;;;;5058436;28;20084;-84
2022/07/31 07:52:22;;;;;;;15.82;12.43;;;;;;;;;;5051666;28;20609;-86
2022/07/31 07:55:28;;;;;;;;;;;;;;;;;;;;;
2022/07/31 07:57:59;;;;;;;12.13;9.45;;;;;;;;;;5035221;28;20038;-85
2022/07/31 08:00:24;;;;;;;12.82;10.57;;;;;;;;;;5034599;28;20020;-85
2022/07/31 08:02:50;;;;;;;14.40;11.02;;;;;;;;;;5026067;28;20031;-83
2022/07/31 08:05:16;;;;;;;13.27;10.80;;;;;;;;;;5034615;28;20377;-83
2022/07/31 08:07:41;;;;;;;10.85;9.32;;;;;;;;;;5032916;28;20024;-85
2022/07/31 08:10:08;;;;;;;12.70;9.75;;;;;;;;;;5012258;28;20030;-84
2022/07/31 08:12:34;;;;;;;9.88;8.00;;;;;;;;;;5040930;28;20112;-84
2022/07/31 08:15:00;;;;;;;12.00;8.77;;;;;;;;;;5034654;28;20025;-83
2022/07/31 08:17:25;;;;;;;9.88;8.10;;;;;;;;;;5075868;28;20050;-84
2022/07/31 08:19:51;;;;;;;10.73;8.35;;;;;;;;;;5091445;28;20072;-85
2022/07/31 08:22:17;;;;;;;12.27;9.02;;;;;;;;;;5090422;28;20082;-84
2022/07/31 08:24:42;;;;;;;9.68;8.30;;;;;;;;;;5040923;28;20113;-85
2022/07/31 08:27:23;;;;;;;9.65;8.00;;;;;;;;;;5056527;28;20026;-81
2022/07/31 08:29:49;;;;;;;11.10;8.70;;;;;;;;;;5027027;28;20027;-85
2022/07/31 08:32:15;;;;;;;10.95;8.68;;;;;;;;;;5023009;28;20465;-86
2022/07/31 08:34:41;;;;;;;12.27;9.10;;;;;;;;;;5038833;28;20026;-83
2022/07/31 08:37:07;;;;;;;11.18;8.52;;;;;;;;;;5017072;28;20385;-84
2022/07/31 08:39:32;;;;;;;11.18;7.63;;;;;;;;;;5059160;28;20026;-83
2022/07/31 08:41:58;;;;;;;11.18;8.52;;;;;;;;;;5040160;28;20025;-84
2022/07/31 08:44:24;;;;;;;10.07;7.93;;;;;;;;;;5056605;28;20041;-83
2022/07/31 08:46:53;;;;;;;11.05;8.23;;;;;;;;;;5041839;28;20417;-83
2022/07/31 08:49:22;;;;;;;;;;;;;;;;;;5032265;28;20036;-83
2022/07/31 08:51:48;;;;;;;8.95;7.13;;;;;;;;;;5019390;28;20318;-83
2022/07/31 08:54:14;;;;;;;7.28;5.60;;;;;;;;;;5036672;28;20022;-84
2022/07/31 08:56:40;;;;;;;8.45;6.05;;;;;;;;;;5034620;28;20049;-84
2022/07/31 08:59:06;;;;;;;12.05;6.85;;;;;;;;;;5028266;28;20033;-83
2022/07/31 09:01:33;;;;;;;9.05;7.00;;;;;;;;;;5046892;28;20408;-83
2022/07/31 09:03:59;;;;;;;8.98;7.70;;;;;;;;;;5052294;28;20079;-82
2022/07/31 09:06:25;;;;;;;9.63;8.00;;;;;;;;;;5027553;28;20031;-84
2022/07/31 09:08:50;;;;;;;9.60;8.57;;;;;;;;;;5055270;28;20030;-85
2022/07/31 09:11:17;;;;;;;8.63;7.22;;;;;;;;;;5039949;28;20059;-84
2022/07/31 09:13:53;;;;;;;9.35;8.35;;;;;;;;;;5025413;28;20021;-86
2022/07/31 09:16:19;;;;;;;11.13;9.32;;;;;;;;;;5061662;28;20052;-85
2022/07/31 09:18:55;;;;;;;12.00;8.82;;;;;;;;;;5056066;28;20408;-84
2022/07/31 09:21:20;;;;;;;10.48;8.73;;;;;;;;;;5064634;28;20133;-84
2022/07/31 09:23:46;;;;;;;11.70;9.27;;;;;;;;;;5038064;28;20023;-84
2022/07/31 09:26:11;;;;;;;10.57;9.00;;;;;;;;;;5045777;28;20050;-83
2022/07/31 09:28:42;;;;;;;13.30;10.52;;;;;;;;;;5041673;28;20044;-83
2022/07/31 09:31:09;;;;;;;12.38;10.02;;;;;;;;;;5021832;28;20053;-84
2022/07/31 09:33:37;;;;;;;12.60;10.15;;;;;;;;;;5040998;28;20091;-80
2022/07/31 09:36:03;;;;;;;13.15;9.75;;;;;;;;;;5070137;28;20035;-84
2022/07/31 09:38:34;;;;;;;12.77;9.45;;;;;;;;;;5057425;28;20033;-84
2022/07/31 09:41:13;;;;;;;12.63;10.30;;;;;;;;;;5054028;28;20022;-85
2022/07/31 09:43:39;;;;;;;10.38;8.93;;;;;;;;;;5041633;28;20473;-84
2022/07/31 09:46:06;;;;;;;12.23;10.88;;;;;;;;;;5046306;28;20029;-87
2022/07/31 09:48:32;;;;;;;11.98;10.20;;;;;;;;;;5037806;28;20496;-85
2022/07/31 09:51:00;;;;;;;11.68;10.05;;;;;;;;;;5028318;28;20068;-80
2022/07/31 09:53:26;;;;;;;11.77;9.77;;;;;;;;;;5032651;28;20045;-84
2022/07/31 09:55:54;;;;;;;9.73;8.70;;;;;;;;;;5062110;28;20027;-81
2022/07/31 09:58:21;;;;;;;10.73;9.40;;;;;;;;;;5044826;28;20033;-82
2022/07/31 10:00:50;;;;;;;9.82;8.80;;;;;;;;;;5059947;28;20037;-85
2022/07/31 10:03:17;;;;;;;20.27;16.38;;;;;;;;;;5029264;28;20030;-84
2022/07/31 10:05:44;;;;;;;16.15;13.48;;;;;;;;;;5028268;28;20116;-84
2022/07/31 10:08:16;;;;;;;13.43;11.02;;;;;;;;;;5013867;28;20389;-83
2022/07/31 10:10:43;;;;;;;10.20;9.10;;;;;;;;;;5021303;28;20032;-82
2022/07/31 10:13:14;;;;;;;10.77;9.10;;;;;;;;;;5044292;28;20035;-83
2022/07/31 10:15:41;;;;;;;11.65;9.98;;;;;;;;;;5027020;28;20018;-84
2022/07/31 10:18:08;;;;;;;13.10;11.35;;;;;;;;;;5058094;28;20027;-82
2022/07/31 10:20:35;;;;;;;12.48;11.15;;;;;;;;;;5021774;28;20022;-82
2022/07/31 10:23:07;;;;;;;13.30;11.45;;;;;;;;;;5052072;28;20025;-81
2022/07/31 10:25:37;;;;;;;13.32;10.07;;;;;;;;;;5027795;28;20041;-84
2022/07/31 10:28:06;;;;;;;11.57;9.07;;;;;;;;;;5048300;28;20030;-81
2022/07/31 10:30:31;;;;;;;13.88;11.15;;;;;;;;;;5032995;28;20034;-85
2022/07/31 10:32:58;;;;;;;12.57;10.98;;;;;;;;;;5031039;28;20037;-84
2022/07/31 10:35:24;;;;;;;12.07;10.88;;;;;;;;;;5046901;28;20026;-85
2022/07/31 10:38:17;;;;;;;13.52;11.40;;;;;;;;;;5033581;28;20033;-84
2022/07/31 10:40:48;;;;;;;12.30;10.55;;;;;;;;;;5049367;28;20105;-82
2022/07/31 10:43:40;;;;;;;11.95;10.70;;;;;;;;;;5033923;28;20029;-84
2022/07/31 10:46:05;;;;;;;15.45;10.73;;;;;;;;;;5038672;28;20026;-84
2022/07/31 10:48:31;;;;;;;12.27;10.93;;;;;;;;;;5040502;28;20016;-84
2022/07/31 10:51:06;;;;;;;13.63;11.82;;;;;;;;;;5020175;28;20105;-84
2022/07/31 10:53:32;;;;;;;12.48;11.18;;;;;;;;;;5035265;28;20024;-84
2022/07/31 10:56:02;;;;;;;11.93;10.65;;;;;;;;;;5033620;28;20019;-84
2022/07/31 10:58:29;;;;;;;12.80;10.73;;;;;;;;;;5014514;28;20030;-86
2022/07/31 11:01:05;;;;;;;11.80;10.50;;;;;;;;;;5070376;28;20457;-83
2022/07/31 11:03:43;;;;;;;11.32;10.02;;;;;;;;;;5058332;28;20155;-83
2022/07/31 11:06:09;;;;;;;11.43;10.23;;;;;;;;;;5063077;28;20021;-84
2022/07/31 11:08:46;;;;;;;10.85;9.68;;;;;;;;;;5067068;28;20443;-85
2022/07/31 11:11:13;;;;;;;11.15;9.95;;;;;;;;;;5051386;28;20030;-83
2022/07/31 11:13:49;;;;;;;9.93;8.93;;;;;;;;;;5047846;28;20059;-81
2022/07/31 11:16:16;;;;;;;10.35;9.18;;;;;;;;;;5031577;28;20120;-83
2022/07/31 11:18:44;;;;;;;13.18;9.98;;;;;;;;;;5031196;28;20397;-87
2022/07/31 11:21:10;;;;;;;11.02;8.93;;;;;;;;;;5051228;28;20530;-85
2022/07/31 11:23:36;;;;;;;9.75;8.75;;;;;;;;;;5056951;28;20016;-83
2022/07/31 11:26:07;;;;;;;8.20;6.97;;;;;;;;;;5031254;28;20020;-84
2022/07/31 11:28:34;;;;;;;9.82;8.80;;;;;;;;;;5031698;28;20089;-83
2022/07/31 11:31:08;;;;;;;10.65;9.02;;;;;;;;;;5047013;28;20029;-85
2022/07/31 11:33:33;;;;;;;10.68;9.57;;;;;;;;;;5043073;28;20022;-84
2022/07/31 11:36:25;;;;;;;11.15;9.40;;;;;;;;;;5072383;28;20027;-86
2022/07/31 11:38:56;;;;;;;9.60;8.35;;;;;;;;;;5059231;28;20039;-83
2022/07/31 11:41:28;;;;;;;11.55;10.38;;;;;;;;;;5063694;28;20036;-84
2022/07/31 11:43:56;;;;;;;10.50;9.23;;;;;;;;;;5062216;28;20027;-83
2022/07/31 11:46:30;;;;;;;10.90;9.90;;;;;;;;;;5030783;28;20029;-83
2022/07/31 11:48:57;;;;;;;9.35;8.35;;;;;;;;;;5062553;28;20026;-83
2022/07/31 11:51:23;;;;;;;10.07;8.50;;;;;;;;;;5042533;28;20038;-82
2022/07/31 11:53:50;;;;;;;25.45;22.77;;;;;;;;;;5067483;28;20101;-80
2022/07/31 11:56:17;;;;;;;22.63;20.20;;;;;;;;;;5083718;28;20066;-80
2022/07/31 11:58:48;;;;;;;11.65;10.45;;;;;;;;;;5039801;28;20041;-81
2022/07/31 12:01:14;;;;;;;9.80;8.88;;;;;;;;;;5041297;28;20030;-81
2022/07/31 12:03:39;;;;;;;10.63;9.60;;;;;;;;;;5063895;28;20094;-78
2022/07/31 12:06:07;;;;;;;10.13;9.10;;;;;;;;;;5062150;28;20033;-80
2022/07/31 12:08:34;;;;;;;10.52;9.43;;;;;;;;;;5068776;28;20110;-79
2022/07/31 12:11:01;;;;;;;11.27;10.18;;;;;;;;;;5042761;28;20040;-81
2022/07/31 12:13:27;;;;;;;10.32;9.23;;;;;;;;;;5034643;28;20034;-80
2022/07/31 12:15:57;;;;;;;10.70;9.70;;;;;;;;;;5065891;28;20041;-81
2022/07/31 12:18:23;;;;;;;10.57;9.57;;;;;;;;;;5044246;28;20371;-83
2022/07/31 12:20:54;;;;;;;11.05;9.77;;;;;;;;;;5043447;27;20136;-83
2022/07/31 12:23:19;;;;;;;10.70;9.70;;;;;;;;;;5061217;28;20027;-82
2022/07/31 12:25:45;;;;;;;9.45;8.55;;;;;;;;;;5045676;28;20031;-83
2022/07/31 12:28:13;;;;;;;9.48;8.60;;;;;;;;;;5046547;28;20108;-84
2022/07/31 12:30:38;;;;;;;9.77;8.88;;;;;;;;;;5051265;28;20036;-85
2022/07/31 12:33:09;;;;;;;8.77;7.97;;;;;;;;;;5044254;28;20060;-83
2022/07/31 12:35:43;;;;;;;9.13;8.23;;;;;;;;;;5069591;28;20033;-82
2022/07/31 12:38:09;;;;;;;10.05;9.13;;;;;;;;;;5053018;28;20038;-83
2022/07/31 12:40:35;;;;;;;9.90;9.00;;;;;;;;;;5039721;28;20031;-85
2022/07/31 12:43:01;;;;;;;10.05;9.05;;;;;;;;;;5053892;28;20065;-83
2022/07/31 12:45:37;;;;;;;9.25;8.45;;;;;;;;;;5087276;28;20032;-85
2022/07/31 12:48:05;;;;;;;9.68;8.88;;;;;;;;;;5050798;28;20019;-87
2022/07/31 12:50:32;;;;;;;8.98;8.13;;;;;;;;;;5034427;28;20031;-83
2022/07/31 12:53:00;;;;;;;9.02;8.23;;;;;;;;;;5022830;28;20101;-83
2022/07/31 12:55:28;;;;;;;9.05;8.25;;;;;;;;;;5037839;28;20034;-83
2022/07/31 12:57:53;;;;;;;9.45;8.65;;;;;;;;;;5047091;28;20124;-81
2022/07/31 13:00:21;;;;;;;9.60;8.70;;;;;;;;;;5052808;28;20777;-83
2022/07/31 13:02:46;;;;;;;9.35;8.55;;;;;;;;;;5052843;28;20134;-84
2022/07/31 13:05:12;;;;;;;9.10;8.30;;;;;;;;;;5053567;28;20035;-83
2022/07/31 13:07:37;;;;;;;15.82;14.20;;;;;;;;;;5044815;28;20021;-87
2022/07/31 13:10:03;;;;;;;15.43;14.00;;;;;;;;;;5044783;28;20037;-85
2022/07/31 13:12:29;;;;;;;14.73;13.43;;;;;;;;;;5050092;28;20030;-86
2022/07/31 13:14:54;;;;;;;9.55;8.65;;;;;;;;;;5025532;28;20485;-83
2022/07/31 13:17:19;;;;;;;10.20;8.75;;;;;;;;;;5037223;28;20121;-86
2022/07/31 13:19:45;;;;;;;9.88;8.88;;;;;;;;;;5046940;28;20038;-85
2022/07/31 13:22:10;;;;;;;9.18;8.38;;;;;;;;;;5050025;28;20021;-83
2022/07/31 13:24:36;;;;;;;9.93;8.85;;;;;;;;;;5078417;28;20023;-83
2022/07/31 13:27:01;;;;;;;9.10;7.72;;;;;;;;;;5087259;28;20029;-82
2022/07/31 13:29:27;;;;;;;10.88;9.77;;;;;;;;;;5030565;28;20498;-86
2022/07/31 13:31:52;;;;;;;8.52;7.72;;;;;;;;;;5035312;28;20056;-85
2022/07/31 13:34:17;;;;;;;7.88;7.07;;;;;;;;;;5043751;28;20478;-85
2022/07/31 13:36:43;;;;;;;8.98;7.68;;;;;;;;;;5041167;28;20033;-86
2022/07/31 13:39:09;;;;;;;7.78;6.97;;;;;;;;;;5046454;28;20043;-87
2022/07/31 13:41:35;;;;;;;17.13;15.02;;;;;;;;;;5037978;28;20026;-87
2022/07/31 13:44:01;;;;;;;8.68;7.88;;;;;;;;;;5059609;28;20432;-86
2022/07/31 13:46:28;;;;;;;7.65;6.82;;;;;;;;;;5066815;28;20038;-83
2022/07/31 13:48:55;;;;;;;8.05;7.25;;;;;;;;;;5051471;28;20041;-79
2022/07/31 13:51:21;;;;;;;7.65;6.95;;;;;;;;;;5022133;28;20482;-82
2022/07/31 13:53:48;;;;;;;7.80;7.18;;;;;;;;;;5053458;28;20063;-82
2022/07/31 13:56:14;;;;;;;8.55;7.85;;;;;;;;;;5045193;28;20038;-81
2022/07/31 13:58:40;;;;;;;7.72;7.03;;;;;;;;;;5054333;28;20027;-85
2022/07/31 14:01:05;;;;;;;10.52;9.63;;;;;;;;;;5043012;28;20037;-83
2022/07/31 14:03:30;;;;;;;9.25;8.35;;;;;;;;;;5046455;28;20036;-81
2022/07/31 14:05:56;;;;;;;7.68;6.97;;;;;;;;;;5054688;28;20459;-81
2022/07/31 14:08:22;;;;;;;7.68;7.07;;;;;;;;;;5047969;28;20025;-81
2022/07/31 14:10:48;;;;;;;8.00;7.20;;;;;;;;;;5072010;28;20438;-83
2022/07/31 14:13:14;;;;;;;7.97;7.28;;;;;;;;;;5050504;28;20028;-82
2022/07/31 14:15:40;;;;;;;7.90;7.30;;;;;;;;;;5042298;28;20037;-83
2022/07/31 14:18:05;;;;;;;7.82;7.22;;;;;;;;;;5042185;28;20047;-83
2022/07/31 14:20:33;;;;;;;7.68;6.88;;;;;;;;;;5061295;28;20099;-82
2022/07/31 14:23:01;;;;;;;6.85;6.32;;;;;;;;;;5067375;28;20023;-82
2022/07/31 14:25:27;;;;;;;8.45;7.75;;;;;;;;;;5043670;28;20065;-84
2022/07/31 14:27:52;;;;;;;7.13;6.53;;;;;;;;;;5055229;28;20051;-82
2022/07/31 14:30:19;;;;;;;7.22;6.68;;;;;;;;;;5038708;28;20026;-80
2022/07/31 14:32:45;;;;;;;7.22;6.63;;;;;;;;;;5080815;28;20103;-83
2022/07/31 14:35:10;;;;;;;7.75;7.15;;;;;;;;;;5075825;28;20025;-81